Tillamook, OR (97141)

3:56 AM PDT on April 28, 2017 (GMT -0700)
MBPTIL | | Change Station

Elev 62 ft 45.46 °N, 123.83 °W | Updated 30 minutes ago

Overcast
Overcast
41.0 °F
Feels Like 38 °F
N
4.0
Wind Variable Wind from ESE
Gusts 5.0 mph

Today
High -- | Low -- °F
--% Chance of Precip.
Yesterday
High -- | Low -- °F
Precip. -- in
Pressure 30.32 in
Visibility 10.0 miles
Clouds Scattered Clouds 3000 ft
Scattered Clouds 4300 ft
Overcast 6000 ft
Windchill 38 °F
Dew Point 41 °F
Humidity 100%
Rainfall 0.02 in
Snow Depth Not available.
6:07 AM 8:18 PM
Waxing Crescent, 6% visible
METAR KTMK 281035Z AUTO 07003KT 10SM SCT030 SCT043 OVC060 05/04 A3032 RMK AO2
Pressure 30.32 in
Visibility 10.0 miles
Clouds Scattered Clouds 3000 ft
Scattered Clouds 4300 ft
Overcast 6000 ft
Windchill 38 °F
Dew Point 41 °F
Humidity 100%
Rainfall 0.02 in
Snow Depth Not available.
6:07 AM 8:18 PM
Waxing Crescent, 6% visible
METAR KTMK 281035Z AUTO 07003KT 10SM SCT030 SCT043 OVC060 05/04 A3032 RMK AO2

Get Severe Weather Alerts

Thanks for signing up!

Be on the lookout for a verification email in your inbox.

You'll start receiving the daily forecast at 8 AM.

×

10-Day Weather Forecast

Almanac

Astronomy

Apr. 28, 2017 Rise Set
Actual Time
Civil Twilight
Nautical Twilight
Astronomical Twilight
Moon
Length of Visible Light
Length of Day
Tomorrow will be .
, % of the Moon is Illuminated

Today's Extremes

State Highs State Lows

Community

WunderPhotos

WunderBlog® & News

Nearby

Air Quality

  Air Quality AQ Index Pollutant
Not available.

Snow Depth

Station Depth Elevation

Earthquake Activity

City Distance Mag. Time & Date
Minimum magnitude displayed is 2.5.

Coastal Water Temperatures

Place Temperature

Stations

Nearby Weather Stations

Station Location Temp. Windchill Dew Point Humidity Wind Precip. Elev Updated Type
                   

Watches & Warnings

There are currently no watches in effect.